sensor_id;sensor_type;location;lat;lon;timestamp;temperature;humidity
5850;DHT22;2951;47.712;9.400;2022-11-15T00:00:23;4.80;99.90
5850;DHT22;2951;47.712;9.400;2022-11-15T00:02:51;4.70;99.90
5850;DHT22;2951;47.712;9.400;2022-11-15T00:05:18;4.60;99.90
5850;DHT22;2951;47.712;9.400;2022-11-15T00:07:45;4.60;99.90
5850;DHT22;2951;47.712;9.400;2022-11-15T00:10:21;4.60;99.90
5850;DHT22;2951;47.712;9.400;2022-11-15T00:12:47;4.50;99.90
5850;DHT22;2951;47.712;9.400;2022-11-15T00:15:14;4.60;99.90
5850;DHT22;2951;47.712;9.400;2022-11-15T00:17:41;4.60;99.90
5850;DHT22;2951;47.712;9.400;2022-11-15T00:20:09;4.50;99.90
5850;DHT22;2951;47.712;9.400;2022-11-15T00:22:40;4.50;99.90
5850;DHT22;2951;47.712;9.400;2022-11-15T00:25:11;4.60;99.90
5850;DHT22;2951;47.712;9.400;2022-11-15T00:27:38;4.60;99.90
5850;DHT22;2951;47.712;9.400;2022-11-15T00:30:05;4.60;99.90
5850;DHT22;2951;47.712;9.400;2022-11-15T00:32:32;4.40;99.90
5850;DHT22;2951;47.712;9.400;2022-11-15T00:34:58;4.40;99.90
5850;DHT22;2951;47.712;9.400;2022-11-15T00:37:26;4.50;99.90
5850;DHT22;2951;47.712;9.400;2022-11-15T00:39:55;4.50;99.90
5850;DHT22;2951;47.712;9.400;2022-11-15T00:42:22;4.40;99.90
5850;DHT22;2951;47.712;9.400;2022-11-15T00:44:51;4.30;99.90
5850;DHT22;2951;47.712;9.400;2022-11-15T00:47:20;4.40;99.90
5850;DHT22;2951;47.712;9.400;2022-11-15T00:50:10;4.40;99.90
5850;DHT22;2951;47.712;9.400;2022-11-15T00:52:50;4.40;99.90
5850;DHT22;2951;47.712;9.400;2022-11-15T00:55:34;4.30;99.90
5850;DHT22;2951;47.712;9.400;2022-11-15T00:58:02;4.20;99.90
5850;DHT22;2951;47.712;9.400;2022-11-15T01:00:41;4.10;99.90
5850;DHT22;2951;47.712;9.400;2022-11-15T01:03:16;4.10;99.90
5850;DHT22;2951;47.712;9.400;2022-11-15T01:05:44;4.20;99.90
5850;DHT22;2951;47.712;9.400;2022-11-15T01:08:30;4.30;99.90
5850;DHT22;2951;47.712;9.400;2022-11-15T01:11:03;4.30;99.90
5850;DHT22;2951;47.712;9.400;2022-11-15T01:13:32;4.40;99.90
5850;DHT22;2951;47.712;9.400;2022-11-15T01:18:37;4.30;99.90
5850;DHT22;2951;47.712;9.400;2022-11-15T01:21:09;4.20;99.90
5850;DHT22;2951;47.712;9.400;2022-11-15T01:23:39;4.10;99.90
5850;DHT22;2951;47.712;9.400;2022-11-15T01:26:09;4.10;99.90
5850;DHT22;2951;47.712;9.400;2022-11-15T01:29:01;4.10;99.90
5850;DHT22;2951;47.712;9.400;2022-11-15T01:31:32;4.10;99.90
5850;DHT22;2951;47.712;9.400;2022-11-15T01:34:05;4.10;99.90
5850;DHT22;2951;47.712;9.400;2022-11-15T01:36:51;4.10;99.90
5850;DHT22;2951;47.712;9.400;2022-11-15T01:39:19;4.10;99.90
5850;DHT22;2951;47.712;9.400;2022-11-15T01:41:48;4.10;99.90
5850;DHT22;2951;47.712;9.400;2022-11-15T01:44:38;4.00;99.90
5850;DHT22;2951;47.712;9.400;2022-11-15T01:47:11;3.90;99.90
5850;DHT22;2951;47.712;9.400;2022-11-15T01:49:46;3.90;99.90
5850;DHT22;2951;47.712;9.400;2022-11-15T01:52:31;3.90;99.90
5850;DHT22;2951;47.712;9.400;2022-11-15T01:55:10;3.90;99.90
5850;DHT22;2951;47.712;9.400;2022-11-15T01:57:39;3.80;99.90
5850;DHT22;2951;47.712;9.400;2022-11-15T02:00:09;3.60;99.90
5850;DHT22;2951;47.712;9.400;2022-11-15T02:02:42;3.60;99.90
5850;DHT22;2951;47.712;9.400;2022-11-15T02:05:09;3.80;99.90
5850;DHT22;2951;47.712;9.400;2022-11-15T02:07:39;3.90;99.90
5850;DHT22;2951;47.712;9.400;2022-11-15T02:10:08;3.80;99.90
5850;DHT22;2951;47.712;9.400;2022-11-15T02:12:35;3.90;99.90
5850;DHT22;2951;47.712;9.400;2022-11-15T02:15:06;3.90;99.90
5850;DHT22;2951;47.712;9.400;2022-11-15T02:28:10;3.40;99.90
5850;DHT22;2951;47.712;9.400;2022-11-15T02:30:49;3.40;99.90
5850;DHT22;2951;47.712;9.400;2022-11-15T02:33:28;3.60;99.90
5850;DHT22;2951;47.712;9.400;2022-11-15T02:36:14;3.80;99.90
5850;DHT22;2951;47.712;9.400;2022-11-15T02:38:51;3.90;99.90
5850;DHT22;2951;47.712;9.400;2022-11-15T02:42:11;4.00;99.90
5850;DHT22;2951;47.712;9.400;2022-11-15T02:47:07;4.00;99.90
5850;DHT22;2951;47.712;9.400;2022-11-15T02:49:47;4.00;99.90
5850;DHT22;2951;47.712;9.400;2022-11-15T02:52:17;4.10;99.90
5850;DHT22;2951;47.712;9.400;2022-11-15T02:54:52;4.10;99.90
5850;DHT22;2951;47.712;9.400;2022-11-15T02:57:20;4.10;99.90
5850;DHT22;2951;47.712;9.400;2022-11-15T03:04:54;4.00;99.90
5850;DHT22;2951;47.712;9.400;2022-11-15T03:07:28;4.10;99.90
5850;DHT22;2951;47.712;9.400;2022-11-15T03:10:02;4.20;99.90
5850;DHT22;2951;47.712;9.400;2022-11-15T03:12:43;4.20;99.90
5850;DHT22;2951;47.712;9.400;2022-11-15T03:15:12;4.20;99.90
5850;DHT22;2951;47.712;9.400;2022-11-15T03:17:44;4.30;99.90
5850;DHT22;2951;47.712;9.400;2022-11-15T03:20:13;4.20;99.90
5850;DHT22;2951;47.712;9.400;2022-11-15T03:22:44;4.20;99.90
5850;DHT22;2951;47.712;9.400;2022-11-15T03:25:22;4.20;99.90
5850;DHT22;2951;47.712;9.400;2022-11-15T03:28:10;4.30;99.90
5850;DHT22;2951;47.712;9.400;2022-11-15T03:30:40;4.30;99.90
5850;DHT22;2951;47.712;9.400;2022-11-15T03:33:08;4.20;99.90
5850;DHT22;2951;47.712;9.400;2022-11-15T03:35:38;4.10;99.90
5850;DHT22;2951;47.712;9.400;2022-11-15T03:38:26;4.10;99.90
5850;DHT22;2951;47.712;9.400;2022-11-15T03:41:00;4.20;99.90
5850;DHT22;2951;47.712;9.400;2022-11-15T03:46:16;4.30;99.90
5850;DHT22;2951;47.712;9.400;2022-11-15T03:48:54;4.40;99.90
5850;DHT22;2951;47.712;9.400;2022-11-15T03:51:25;4.50;99.90
5850;DHT22;2951;47.712;9.400;2022-11-15T03:53:53;4.60;99.90
5850;DHT22;2951;47.712;9.400;2022-11-15T03:56:35;4.60;99.90
5850;DHT22;2951;47.712;9.400;2022-11-15T03:59:05;4.70;99.90
5850;DHT22;2951;47.712;9.400;2022-11-15T04:02:00;4.70;99.90
5850;DHT22;2951;47.712;9.400;2022-11-15T04:04:31;4.70;99.90
5850;DHT22;2951;47.712;9.400;2022-11-15T04:07:18;4.80;99.90
5850;DHT22;2951;47.712;9.400;2022-11-15T04:09:46;4.80;99.90
5850;DHT22;2951;47.712;9.400;2022-11-15T04:12:29;4.80;99.90
5850;DHT22;2951;47.712;9.400;2022-11-15T04:17:36;4.70;99.90
5850;DHT22;2951;47.712;9.400;2022-11-15T04:20:03;4.70;99.90
5850;DHT22;2951;47.712;9.400;2022-11-15T04:22:51;4.80;99.90
5850;DHT22;2951;47.712;9.400;2022-11-15T04:25:37;4.70;99.90
5850;DHT22;2951;47.712;9.400;2022-11-15T04:28:04;4.60;99.90
5850;DHT22;2951;47.712;9.400;2022-11-15T04:30:30;4.60;99.90
5850;DHT22;2951;47.712;9.400;2022-11-15T04:32:57;4.60;99.90
5850;DHT22;2951;47.712;9.400;2022-11-15T04:35:24;4.50;99.90
5850;DHT22;2951;47.712;9.400;2022-11-15T04:37:51;4.40;99.90
5850;DHT22;2951;47.712;9.400;2022-11-15T04:40:18;4.40;99.90
5850;DHT22;2951;47.712;9.400;2022-11-15T04:42:45;4.50;99.90
5850;DHT22;2951;47.712;9.400;2022-11-15T04:45:11;4.40;99.90
5850;DHT22;2951;47.712;9.400;2022-11-15T04:47:38;4.40;99.90
5850;DHT22;2951;47.712;9.400;2022-11-15T04:50:05;4.40;99.90
5850;DHT22;2951;47.712;9.400;2022-11-15T04:52:31;4.40;99.90
5850;DHT22;2951;47.712;9.400;2022-11-15T04:54:58;4.40;99.90
5850;DHT22;2951;47.712;9.400;2022-11-15T04:57:32;4.50;99.90
5850;DHT22;2951;47.712;9.400;2022-11-15T04:59:58;4.60;99.90
5850;DHT22;2951;47.712;9.400;2022-11-15T05:02:25;4.60;99.90
5850;DHT22;2951;47.712;9.400;2022-11-15T05:05:12;4.60;99.90
5850;DHT22;2951;47.712;9.400;2022-11-15T05:07:38;4.60;99.90
5850;DHT22;2951;47.712;9.400;2022-11-15T05:10:05;4.70;99.90
5850;DHT22;2951;47.712;9.400;2022-11-15T05:12:32;4.60;99.90
5850;DHT22;2951;47.712;9.400;2022-11-15T05:14:59;4.60;99.90
5850;DHT22;2951;47.712;9.400;2022-11-15T05:17:25;4.70;99.90
5850;DHT22;2951;47.712;9.400;2022-11-15T05:19:52;4.70;99.90
5850;DHT22;2951;47.712;9.400;2022-11-15T05:22:19;4.80;99.90
5850;DHT22;2951;47.712;9.400;2022-11-15T05:24:45;4.80;99.90
5850;DHT22;2951;47.712;9.400;2022-11-15T05:27:12;4.80;99.90
5850;DHT22;2951;47.712;9.400;2022-11-15T05:29:39;5.10;99.90
5850;DHT22;2951;47.712;9.400;2022-11-15T05:32:05;5.10;99.90
5850;DHT22;2951;47.712;9.400;2022-11-15T05:34:34;5.30;99.90
5850;DHT22;2951;47.712;9.400;2022-11-15T05:37:01;5.30;99.90
5850;DHT22;2951;47.712;9.400;2022-11-15T05:39:27;5.40;99.90
5850;DHT22;2951;47.712;9.400;2022-11-15T05:41:56;5.40;99.90
5850;DHT22;2951;47.712;9.400;2022-11-15T05:44:26;5.40;99.90
5850;DHT22;2951;47.712;9.400;2022-11-15T05:46:53;5.10;99.90
5850;DHT22;2951;47.712;9.400;2022-11-15T05:49:22;4.90;99.90
5850;DHT22;2951;47.712;9.400;2022-11-15T05:51:51;4.90;99.90
5850;DHT22;2951;47.712;9.400;2022-11-15T05:54:18;5.00;99.90
5850;DHT22;2951;47.712;9.400;2022-11-15T05:56:45;5.00;99.90
5850;DHT22;2951;47.712;9.400;2022-11-15T05:59:12;5.00;99.90
5850;DHT22;2951;47.712;9.400;2022-11-15T06:01:40;5.00;99.90
5850;DHT22;2951;47.712;9.400;2022-11-15T06:04:11;4.90;99.90
5850;DHT22;2951;47.712;9.400;2022-11-15T06:06:38;5.00;99.90
5850;DHT22;2951;47.712;9.400;2022-11-15T06:09:05;5.00;99.90
5850;DHT22;2951;47.712;9.400;2022-11-15T06:11:31;5.00;99.90
5850;DHT22;2951;47.712;9.400;2022-11-15T06:13:58;5.00;99.90
5850;DHT22;2951;47.712;9.400;2022-11-15T06:16:25;5.10;99.90
5850;DHT22;2951;47.712;9.400;2022-11-15T06:18:51;5.10;99.90
5850;DHT22;2951;47.712;9.400;2022-11-15T06:21:18;5.10;99.90
5850;DHT22;2951;47.712;9.400;2022-11-15T06:23:45;5.20;99.90
5850;DHT22;2951;47.712;9.400;2022-11-15T06:26:11;5.30;99.90
5850;DHT22;2951;47.712;9.400;2022-11-15T06:28:38;5.20;99.90
5850;DHT22;2951;47.712;9.400;2022-11-15T06:31:05;5.20;99.90
5850;DHT22;2951;47.712;9.400;2022-11-15T06:33:32;5.20;99.90
5850;DHT22;2951;47.712;9.400;2022-11-15T06:36:00;5.20;99.90
5850;DHT22;2951;47.712;9.400;2022-11-15T06:38:27;5.10;99.90
5850;DHT22;2951;47.712;9.400;2022-11-15T06:40:53;5.10;99.90
5850;DHT22;2951;47.712;9.400;2022-11-15T06:43:20;5.20;99.90
5850;DHT22;2951;47.712;9.400;2022-11-15T06:45:47;5.10;99.90
5850;DHT22;2951;47.712;9.400;2022-11-15T06:48:13;5.20;99.90
5850;DHT22;2951;47.712;9.400;2022-11-15T06:50:40;5.30;99.90
5850;DHT22;2951;47.712;9.400;2022-11-15T06:53:07;5.40;99.90
5850;DHT22;2951;47.712;9.400;2022-11-15T06:55:34;5.50;99.90
5850;DHT22;2951;47.712;9.400;2022-11-15T06:58:02;5.50;99.90
5850;DHT22;2951;47.712;9.400;2022-11-15T07:00:29;5.30;99.90
5850;DHT22;2951;47.712;9.400;2022-11-15T07:02:56;5.20;99.90
5850;DHT22;2951;47.712;9.400;2022-11-15T07:05:26;5.10;99.90
5850;DHT22;2951;47.712;9.400;2022-11-15T07:07:53;5.20;99.90
5850;DHT22;2951;47.712;9.400;2022-11-15T07:10:20;5.30;99.90
5850;DHT22;2951;47.712;9.400;2022-11-15T07:12:47;5.30;99.90
5850;DHT22;2951;47.712;9.400;2022-11-15T07:15:15;5.20;99.90
5850;DHT22;2951;47.712;9.400;2022-11-15T07:17:42;5.20;99.90
5850;DHT22;2951;47.712;9.400;2022-11-15T07:20:09;5.30;99.90
5850;DHT22;2951;47.712;9.400;2022-11-15T07:22:35;5.30;99.90
5850;DHT22;2951;47.712;9.400;2022-11-15T07:25:02;5.40;99.90
5850;DHT22;2951;47.712;9.400;2022-11-15T07:27:29;5.40;99.90
5850;DHT22;2951;47.712;9.400;2022-11-15T07:29:56;5.40;99.90
5850;DHT22;2951;47.712;9.400;2022-11-15T07:32:22;5.40;99.90
5850;DHT22;2951;47.712;9.400;2022-11-15T07:34:49;5.70;99.90
5850;DHT22;2951;47.712;9.400;2022-11-15T07:37:16;5.80;99.90
5850;DHT22;2951;47.712;9.400;2022-11-15T07:39:43;5.80;99.90
5850;DHT22;2951;47.712;9.400;2022-11-15T07:42:10;5.60;99.90
5850;DHT22;2951;47.712;9.400;2022-11-15T07:44:55;5.40;99.90
5850;DHT22;2951;47.712;9.400;2022-11-15T07:47:22;5.40;99.90
5850;DHT22;2951;47.712;9.400;2022-11-15T07:49:48;5.40;99.90
5850;DHT22;2951;47.712;9.400;2022-11-15T07:52:15;5.50;99.90
5850;DHT22;2951;47.712;9.400;2022-11-15T07:54:42;5.50;99.90
5850;DHT22;2951;47.712;9.400;2022-11-15T07:57:09;5.50;99.90
5850;DHT22;2951;47.712;9.400;2022-11-15T07:59:36;5.50;99.90
5850;DHT22;2951;47.712;9.400;2022-11-15T08:02:02;5.70;99.90
5850;DHT22;2951;47.712;9.400;2022-11-15T08:04:29;5.90;99.90
5850;DHT22;2951;47.712;9.400;2022-11-15T08:06:56;6.10;99.90
5850;DHT22;2951;47.712;9.400;2022-11-15T08:09:23;6.00;99.90
5850;DHT22;2951;47.712;9.400;2022-11-15T08:11:50;6.00;99.90
5850;DHT22;2951;47.712;9.400;2022-11-15T08:14:16;6.10;99.90
5850;DHT22;2951;47.712;9.400;2022-11-15T08:16:43;6.20;99.90
5850;DHT22;2951;47.712;9.400;2022-11-15T08:19:10;6.20;99.90
5850;DHT22;2951;47.712;9.400;2022-11-15T08:21:36;6.30;99.90
5850;DHT22;2951;47.712;9.400;2022-11-15T08:24:03;6.20;99.90
5850;DHT22;2951;47.712;9.400;2022-11-15T08:26:30;6.30;99.90
5850;DHT22;2951;47.712;9.400;2022-11-15T08:28:57;6.40;99.90
5850;DHT22;2951;47.712;9.400;2022-11-15T08:31:24;6.50;99.90
5850;DHT22;2951;47.712;9.400;2022-11-15T08:33:50;6.60;99.90
5850;DHT22;2951;47.712;9.400;2022-11-15T08:36:17;6.70;99.90
5850;DHT22;2951;47.712;9.400;2022-11-15T08:38:44;6.80;99.90
5850;DHT22;2951;47.712;9.400;2022-11-15T08:41:12;6.70;99.90
5850;DHT22;2951;47.712;9.400;2022-11-15T08:43:40;6.70;99.90
5850;DHT22;2951;47.712;9.400;2022-11-15T08:46:07;6.80;99.90
5850;DHT22;2951;47.712;9.400;2022-11-15T08:48:35;6.90;99.90
5850;DHT22;2951;47.712;9.400;2022-11-15T08:51:01;7.00;99.90
5850;DHT22;2951;47.712;9.400;2022-11-15T08:53:28;7.00;99.90
5850;DHT22;2951;47.712;9.400;2022-11-15T08:55:55;7.10;99.90
5850;DHT22;2951;47.712;9.400;2022-11-15T08:58:21;7.00;99.90
5850;DHT22;2951;47.712;9.400;2022-11-15T09:00:48;7.00;99.90
5850;DHT22;2951;47.712;9.400;2022-11-15T09:03:15;7.00;99.90
5850;DHT22;2951;47.712;9.400;2022-11-15T09:05:42;7.10;99.90
5850;DHT22;2951;47.712;9.400;2022-11-15T09:08:09;7.20;99.90
5850;DHT22;2951;47.712;9.400;2022-11-15T09:10:55;7.30;99.90
5850;DHT22;2951;47.712;9.400;2022-11-15T09:13:22;7.00;99.90
5850;DHT22;2951;47.712;9.400;2022-11-15T09:15:49;6.80;99.90
5850;DHT22;2951;47.712;9.400;2022-11-15T09:18:15;6.60;99.90
5850;DHT22;2951;47.712;9.400;2022-11-15T09:20:42;6.80;99.90
5850;DHT22;2951;47.712;9.400;2022-11-15T09:23:09;6.80;99.90
5850;DHT22;2951;47.712;9.400;2022-11-15T09:25:35;6.90;99.90
5850;DHT22;2951;47.712;9.400;2022-11-15T09:28:05;7.00;99.90
5850;DHT22;2951;47.712;9.400;2022-11-15T09:30:32;7.20;99.90
5850;DHT22;2951;47.712;9.400;2022-11-15T09:32:58;7.10;99.90
5850;DHT22;2951;47.712;9.400;2022-11-15T09:35:25;7.20;99.90
5850;DHT22;2951;47.712;9.400;2022-11-15T09:37:52;7.40;99.90
5850;DHT22;2951;47.712;9.400;2022-11-15T09:40:22;7.40;99.90
5850;DHT22;2951;47.712;9.400;2022-11-15T09:42:52;7.50;99.90
5850;DHT22;2951;47.712;9.400;2022-11-15T09:45:27;7.50;99.90
5850;DHT22;2951;47.712;9.400;2022-11-15T09:48:07;7.50;99.90
5850;DHT22;2951;47.712;9.400;2022-11-15T09:53:11;7.50;99.90
5850;DHT22;2951;47.712;9.400;2022-11-15T09:58:42;7.60;99.90
5850;DHT22;2951;47.712;9.400;2022-11-15T10:01:08;7.70;99.90
5850;DHT22;2951;47.712;9.400;2022-11-15T10:03:38;7.60;99.90
5850;DHT22;2951;47.712;9.400;2022-11-15T10:06:08;7.60;99.90
5850;DHT22;2951;47.712;9.400;2022-11-15T10:13:49;7.90;99.90
5850;DHT22;2951;47.712;9.400;2022-11-15T10:21:17;7.50;99.90
5850;DHT22;2951;47.712;9.400;2022-11-15T10:23:45;7.60;99.90
5850;DHT22;2951;47.712;9.400;2022-11-15T10:26:13;7.70;99.90
5850;DHT22;2951;47.712;9.400;2022-11-15T10:28:41;7.70;99.90
5850;DHT22;2951;47.712;9.400;2022-11-15T10:31:22;7.60;99.90
5850;DHT22;2951;47.712;9.400;2022-11-15T10:33:48;7.60;99.90
5850;DHT22;2951;47.712;9.400;2022-11-15T10:36:19;7.80;99.90
5850;DHT22;2951;47.712;9.400;2022-11-15T10:43:44;7.90;99.90
5850;DHT22;2951;47.712;9.400;2022-11-15T10:46:19;7.60;99.90
5850;DHT22;2951;47.712;9.400;2022-11-15T10:54:11;7.80;99.90
5850;DHT22;2951;47.712;9.400;2022-11-15T10:56:43;7.90;99.90
5850;DHT22;2951;47.712;9.400;2022-11-15T10:59:16;7.90;99.90
5850;DHT22;2951;47.712;9.400;2022-11-15T11:01:45;8.00;99.90
5850;DHT22;2951;47.712;9.400;2022-11-15T11:04:12;8.00;99.90
5850;DHT22;2951;47.712;9.400;2022-11-15T11:07:19;8.10;99.90
5850;DHT22;2951;47.712;9.400;2022-11-15T11:09:37;8.20;99.90
5850;DHT22;2951;47.712;9.400;2022-11-15T11:12:05;8.30;99.90
5850;DHT22;2951;47.712;9.400;2022-11-15T11:14:33;8.30;99.90
5850;DHT22;2951;47.712;9.400;2022-11-15T11:38:32;8.70;99.90
5850;DHT22;2951;47.712;9.400;2022-11-15T11:46:38;8.70;99.90
5850;DHT22;2951;47.712;9.400;2022-11-15T11:49:14;8.70;99.90
5850;DHT22;2951;47.712;9.400;2022-11-15T11:54:37;8.80;99.90
5850;DHT22;2951;47.712;9.400;2022-11-15T11:57:06;8.90;99.90
5850;DHT22;2951;47.712;9.400;2022-11-15T11:59:43;9.00;99.90
5850;DHT22;2951;47.712;9.400;2022-11-15T12:05:22;9.10;99.90
5850;DHT22;2951;47.712;9.400;2022-11-15T12:07:47;9.20;99.90
5850;DHT22;2951;47.712;9.400;2022-11-15T12:10:20;9.10;99.90
5850;DHT22;2951;47.712;9.400;2022-11-15T12:15:29;9.20;99.90
5850;DHT22;2951;47.712;9.400;2022-11-15T12:17:57;9.20;99.90
5850;DHT22;2951;47.712;9.400;2022-11-15T12:20:29;9.20;99.90
5850;DHT22;2951;47.712;9.400;2022-11-15T12:22:58;9.20;99.90
5850;DHT22;2951;47.712;9.400;2022-11-15T12:25:28;9.30;99.90
5850;DHT22;2951;47.712;9.400;2022-11-15T12:28:01;9.20;99.90
5850;DHT22;2951;47.712;9.400;2022-11-15T12:30:44;9.30;99.90
5850;DHT22;2951;47.712;9.400;2022-11-15T12:36:00;9.50;99.90
5850;DHT22;2951;47.712;9.400;2022-11-15T12:43:40;9.60;99.90
5850;DHT22;2951;47.712;9.400;2022-11-15T12:48:54;9.70;99.90
5850;DHT22;2951;47.712;9.400;2022-11-15T12:51:22;9.80;99.90
5850;DHT22;2951;47.712;9.400;2022-11-15T12:53:49;9.80;99.90
5850;DHT22;2951;47.712;9.400;2022-11-15T12:58:51;10.00;99.90
5850;DHT22;2951;47.712;9.400;2022-11-15T13:06:41;10.40;99.90
5850;DHT22;2951;47.712;9.400;2022-11-15T13:11:54;10.40;99.90
5850;DHT22;2951;47.712;9.400;2022-11-15T13:17:12;10.30;99.90
5850;DHT22;2951;47.712;9.400;2022-11-15T13:19:42;10.40;99.90
5850;DHT22;2951;47.712;9.400;2022-11-15T13:22:09;10.40;99.90
5850;DHT22;2951;47.712;9.400;2022-11-15T13:24:54;10.50;99.90
5850;DHT22;2951;47.712;9.400;2022-11-15T13:27:21;10.50;99.90
5850;DHT22;2951;47.712;9.400;2022-11-15T13:29:48;10.40;99.90
5850;DHT22;2951;47.712;9.400;2022-11-15T13:32:15;10.40;99.90
5850;DHT22;2951;47.712;9.400;2022-11-15T13:34:43;10.50;99.90
5850;DHT22;2951;47.712;9.400;2022-11-15T13:39:48;10.40;99.90
5850;DHT22;2951;47.712;9.400;2022-11-15T13:42:15;10.40;99.90
5850;DHT22;2951;47.712;9.400;2022-11-15T13:45:01;10.50;99.90
5850;DHT22;2951;47.712;9.400;2022-11-15T13:47:29;10.50;99.90
5850;DHT22;2951;47.712;9.400;2022-11-15T13:49:59;10.50;99.90
5850;DHT22;2951;47.712;9.400;2022-11-15T13:52:28;10.60;99.90
5850;DHT22;2951;47.712;9.400;2022-11-15T13:54:59;10.50;99.90
5850;DHT22;2951;47.712;9.400;2022-11-15T13:57:30;10.50;99.90
5850;DHT22;2951;47.712;9.400;2022-11-15T14:00:02;10.40;99.90
5850;DHT22;2951;47.712;9.400;2022-11-15T14:02:31;10.30;99.90
5850;DHT22;2951;47.712;9.400;2022-11-15T14:05:15;10.40;99.90
5850;DHT22;2951;47.712;9.400;2022-11-15T14:07:56;10.40;99.90
5850;DHT22;2951;47.712;9.400;2022-11-15T14:12:56;10.30;99.90
5850;DHT22;2951;47.712;9.400;2022-11-15T14:15:25;10.20;99.90
5850;DHT22;2951;47.712;9.400;2022-11-15T14:17:52;10.20;99.90
5850;DHT22;2951;47.712;9.400;2022-11-15T14:22:56;10.10;99.90
5850;DHT22;2951;47.712;9.400;2022-11-15T14:25:24;10.10;99.90
5850;DHT22;2951;47.712;9.400;2022-11-15T14:28:10;10.00;99.90
5850;DHT22;2951;47.712;9.400;2022-11-15T14:30:39;9.80;99.90
5850;DHT22;2951;47.712;9.400;2022-11-15T14:35:52;9.80;99.90
5850;DHT22;2951;47.712;9.400;2022-11-15T14:38:19;9.70;99.90
5850;DHT22;2951;47.712;9.400;2022-11-15T14:40:45;9.60;99.90
5850;DHT22;2951;47.712;9.400;2022-11-15T14:43:12;9.60;99.90
5850;DHT22;2951;47.712;9.400;2022-11-15T14:45:39;9.60;99.90
5850;DHT22;2951;47.712;9.400;2022-11-15T14:48:06;9.60;99.90
5850;DHT22;2951;47.712;9.400;2022-11-15T14:50:34;9.60;99.90
5850;DHT22;2951;47.712;9.400;2022-11-15T14:53:01;9.60;99.90
5850;DHT22;2951;47.712;9.400;2022-11-15T14:55:32;9.70;99.90
5850;DHT22;2951;47.712;9.400;2022-11-15T14:58:02;9.70;99.90
5850;DHT22;2951;47.712;9.400;2022-11-15T15:00:30;9.70;99.90
5850;DHT22;2951;47.712;9.400;2022-11-15T15:03:00;9.70;99.90
5850;DHT22;2951;47.712;9.400;2022-11-15T15:05:34;9.70;99.90
5850;DHT22;2951;47.712;9.400;2022-11-15T15:08:01;9.60;99.90
5850;DHT22;2951;47.712;9.400;2022-11-15T15:10:31;9.60;99.90
5850;DHT22;2951;47.712;9.400;2022-11-15T15:13:06;9.70;99.90
5850;DHT22;2951;47.712;9.400;2022-11-15T15:15:36;9.70;99.90
5850;DHT22;2951;47.712;9.400;2022-11-15T15:18:03;9.70;99.90
5850;DHT22;2951;47.712;9.400;2022-11-15T15:20:31;9.70;99.90
5850;DHT22;2951;47.712;9.400;2022-11-15T15:22:58;9.80;99.90
5850;DHT22;2951;47.712;9.400;2022-11-15T15:27:54;9.70;99.90
5850;DHT22;2951;47.712;9.400;2022-11-15T15:30:22;9.70;99.90
5850;DHT22;2951;47.712;9.400;2022-11-15T15:32:49;9.80;99.90
5850;DHT22;2951;47.712;9.400;2022-11-15T15:35:16;9.90;99.90
5850;DHT22;2951;47.712;9.400;2022-11-15T15:37:43;9.80;99.90
5850;DHT22;2951;47.712;9.400;2022-11-15T15:40:12;9.80;99.90
5850;DHT22;2951;47.712;9.400;2022-11-15T15:42:39;9.80;99.90
5850;DHT22;2951;47.712;9.400;2022-11-15T15:45:07;9.70;99.90
5850;DHT22;2951;47.712;9.400;2022-11-15T15:47:34;9.70;99.90
5850;DHT22;2951;47.712;9.400;2022-11-15T15:50:01;9.70;99.90
5850;DHT22;2951;47.712;9.400;2022-11-15T15:52:27;9.70;99.90
5850;DHT22;2951;47.712;9.400;2022-11-15T15:54:54;9.70;99.90
5850;DHT22;2951;47.712;9.400;2022-11-15T15:57:20;9.70;99.90
5850;DHT22;2951;47.712;9.400;2022-11-15T15:59:47;9.60;99.90
5850;DHT22;2951;47.712;9.400;2022-11-15T16:02:16;9.60;99.90
5850;DHT22;2951;47.712;9.400;2022-11-15T16:04:42;9.50;99.90
5850;DHT22;2951;47.712;9.400;2022-11-15T16:07:15;9.50;99.90
5850;DHT22;2951;47.712;9.400;2022-11-15T16:09:42;9.40;99.90
5850;DHT22;2951;47.712;9.400;2022-11-15T16:12:31;9.30;99.90
5850;DHT22;2951;47.712;9.400;2022-11-15T16:14:58;9.20;99.90
5850;DHT22;2951;47.712;9.400;2022-11-15T16:17:26;9.30;99.90
5850;DHT22;2951;47.712;9.400;2022-11-15T16:19:58;9.10;99.90
5850;DHT22;2951;47.712;9.400;2022-11-15T16:22:24;9.10;99.90
5850;DHT22;2951;47.712;9.400;2022-11-15T16:24:51;9.10;99.90
5850;DHT22;2951;47.712;9.400;2022-11-15T16:27:18;9.10;99.90
5850;DHT22;2951;47.712;9.400;2022-11-15T16:29:46;9.10;99.90
5850;DHT22;2951;47.712;9.400;2022-11-15T16:32:13;9.10;99.90
5850;DHT22;2951;47.712;9.400;2022-11-15T16:34:40;9.10;99.90
5850;DHT22;2951;47.712;9.400;2022-11-15T16:37:18;9.10;99.90
5850;DHT22;2951;47.712;9.400;2022-11-15T16:39:47;9.00;99.90
5850;DHT22;2951;47.712;9.400;2022-11-15T16:42:14;9.00;99.90
5850;DHT22;2951;47.712;9.400;2022-11-15T16:44:40;9.00;99.90
5850;DHT22;2951;47.712;9.400;2022-11-15T16:47:17;9.00;99.90
5850;DHT22;2951;47.712;9.400;2022-11-15T16:49:44;9.10;99.90
5850;DHT22;2951;47.712;9.400;2022-11-15T16:52:11;9.20;99.90
5850;DHT22;2951;47.712;9.400;2022-11-15T16:54:38;9.20;99.90
5850;DHT22;2951;47.712;9.400;2022-11-15T16:57:04;9.20;99.90
5850;DHT22;2951;47.712;9.400;2022-11-15T16:59:31;9.30;99.90
5850;DHT22;2951;47.712;9.400;2022-11-15T17:02:04;9.30;99.90
5850;DHT22;2951;47.712;9.400;2022-11-15T17:04:31;9.40;99.90
5850;DHT22;2951;47.712;9.400;2022-11-15T17:06:59;9.40;99.90
5850;DHT22;2951;47.712;9.400;2022-11-15T17:09:26;9.40;99.90
5850;DHT22;2951;47.712;9.400;2022-11-15T17:11:52;9.50;99.90
5850;DHT22;2951;47.712;9.400;2022-11-15T17:14:22;9.50;99.90
5850;DHT22;2951;47.712;9.400;2022-11-15T17:16:49;9.60;99.90
5850;DHT22;2951;47.712;9.400;2022-11-15T17:19:19;9.70;99.90
5850;DHT22;2951;47.712;9.400;2022-11-15T17:21:46;9.80;99.90
5850;DHT22;2951;47.712;9.400;2022-11-15T17:24:14;9.90;99.90
5850;DHT22;2951;47.712;9.400;2022-11-15T17:26:42;10.00;99.90
5850;DHT22;2951;47.712;9.400;2022-11-15T17:29:09;10.10;99.90
5850;DHT22;2951;47.712;9.400;2022-11-15T17:31:36;10.20;99.90
5850;DHT22;2951;47.712;9.400;2022-11-15T17:34:03;10.20;99.90
5850;DHT22;2951;47.712;9.400;2022-11-15T17:36:30;10.30;99.90
5850;DHT22;2951;47.712;9.400;2022-11-15T17:38:57;10.40;99.90
5850;DHT22;2951;47.712;9.400;2022-11-15T17:41:25;10.40;99.90
5850;DHT22;2951;47.712;9.400;2022-11-15T17:43:52;10.30;99.90
5850;DHT22;2951;47.712;9.400;2022-11-15T17:46:20;10.30;99.90
5850;DHT22;2951;47.712;9.400;2022-11-15T17:48:47;10.30;99.90
5850;DHT22;2951;47.712;9.400;2022-11-15T17:51:15;10.30;99.90
5850;DHT22;2951;47.712;9.400;2022-11-15T17:53:43;10.30;99.90
5850;DHT22;2951;47.712;9.400;2022-11-15T17:56:11;10.40;99.90
5850;DHT22;2951;47.712;9.400;2022-11-15T17:58:38;10.50;99.90
5850;DHT22;2951;47.712;9.400;2022-11-15T18:01:15;10.50;99.90
5850;DHT22;2951;47.712;9.400;2022-11-15T18:03:42;10.50;99.90
5850;DHT22;2951;47.712;9.400;2022-11-15T18:06:09;10.40;99.90
5850;DHT22;2951;47.712;9.400;2022-11-15T18:08:37;10.40;99.90
5850;DHT22;2951;47.712;9.400;2022-11-15T18:11:09;10.40;99.90
5850;DHT22;2951;47.712;9.400;2022-11-15T18:13:37;10.40;99.90
5850;DHT22;2951;47.712;9.400;2022-11-15T18:16:04;10.40;99.90
5850;DHT22;2951;47.712;9.400;2022-11-15T18:18:32;10.40;99.90
5850;DHT22;2951;47.712;9.400;2022-11-15T18:21:06;10.50;99.90
5850;DHT22;2951;47.712;9.400;2022-11-15T18:23:33;10.50;99.90
5850;DHT22;2951;47.712;9.400;2022-11-15T18:26:01;10.60;99.90
5850;DHT22;2951;47.712;9.400;2022-11-15T18:28:29;10.70;99.90
5850;DHT22;2951;47.712;9.400;2022-11-15T18:30:57;10.70;99.90
5850;DHT22;2951;47.712;9.400;2022-11-15T18:33:24;10.70;99.90
5850;DHT22;2951;47.712;9.400;2022-11-15T18:35:58;10.70;99.90